sensor_id;sensor_type;location;lat;lon;timestamp;pressure;altitude;pressure_sealevel;temperature;humidity
77626;BME280;66794;43.764;10.436;2023-02-15T00:01:48;103351.44;;;3.60;100.00
77626;BME280;66794;43.764;10.436;2023-02-15T00:04:16;103377.63;;;3.94;100.00
77626;BME280;66794;43.764;10.436;2023-02-15T00:06:41;103358.53;;;3.81;100.00
77626;BME280;66794;43.764;10.436;2023-02-15T00:09:09;103390.25;;;4.11;100.00
77626;BME280;66794;43.764;10.436;2023-02-15T00:11:35;103376.47;;;3.79;100.00
77626;BME280;66794;43.764;10.436;2023-02-15T00:16:42;103390.09;;;3.54;100.00
77626;BME280;66794;43.764;10.436;2023-02-15T00:19:09;103391.44;;;3.44;100.00
77626;BME280;66794;43.764;10.436;2023-02-15T00:21:35;103389.63;;;3.45;100.00
77626;BME280;66794;43.764;10.436;2023-02-15T00:24:04;103387.88;;;3.43;100.00
77626;BME280;66794;43.764;10.436;2023-02-15T00:26:29;103362.25;;;3.36;100.00
77626;BME280;66794;43.764;10.436;2023-02-15T00:28:56;103367.72;;;3.55;100.00
77626;BME280;66794;43.764;10.436;2023-02-15T00:31:24;103314.47;;;3.27;100.00
77626;BME280;66794;43.764;10.436;2023-02-15T00:33:50;103351.50;;;3.58;100.00
77626;BME280;66794;43.764;10.436;2023-02-15T00:36:15;103323.31;;;3.50;100.00
77626;BME280;66794;43.764;10.436;2023-02-15T00:38:40;103339.38;;;3.70;100.00
77626;BME280;66794;43.764;10.436;2023-02-15T00:41:07;103379.88;;;4.03;100.00
77626;BME280;66794;43.764;10.436;2023-02-15T00:43:33;103329.22;;;3.37;100.00
77626;BME280;66794;43.764;10.436;2023-02-15T00:46:00;103388.56;;;3.49;100.00
77626;BME280;66794;43.764;10.436;2023-02-15T00:48:26;103379.91;;;3.62;100.00
77626;BME280;66794;43.764;10.436;2023-02-15T00:50:53;103370.72;;;3.88;99.97
77626;BME280;66794;43.764;10.436;2023-02-15T00:53:20;103345.00;;;3.43;98.78
77626;BME280;66794;43.764;10.436;2023-02-15T00:55:45;103330.41;;;3.10;99.23
77626;BME280;66794;43.764;10.436;2023-02-15T00:58:12;103340.97;;;3.13;100.00
77626;BME280;66794;43.764;10.436;2023-02-15T01:00:38;103347.13;;;3.35;100.00
77626;BME280;66794;43.764;10.436;2023-02-15T01:03:04;103345.88;;;3.02;100.00
77626;BME280;66794;43.764;10.436;2023-02-15T01:05:30;103303.25;;;2.75;100.00
77626;BME280;66794;43.764;10.436;2023-02-15T01:07:56;103367.88;;;3.30;100.00
77626;BME280;66794;43.764;10.436;2023-02-15T01:10:22;103368.03;;;3.48;100.00
77626;BME280;66794;43.764;10.436;2023-02-15T01:12:50;103375.34;;;3.44;96.80
77626;BME280;66794;43.764;10.436;2023-02-15T01:15:15;103331.97;;;3.14;94.71
77626;BME280;66794;43.764;10.436;2023-02-15T01:17:41;103343.63;;;3.13;95.40
77626;BME280;66794;43.764;10.436;2023-02-15T01:20:07;103362.13;;;2.97;99.17
77626;BME280;66794;43.764;10.436;2023-02-15T01:22:33;103319.66;;;1.99;100.00
77626;BME280;66794;43.764;10.436;2023-02-15T01:24:58;103366.41;;;2.12;100.00
77626;BME280;66794;43.764;10.436;2023-02-15T01:27:24;103338.25;;;1.53;100.00
77626;BME280;66794;43.764;10.436;2023-02-15T01:29:49;103330.72;;;0.88;100.00
77626;BME280;66794;43.764;10.436;2023-02-15T01:32:15;103320.69;;;0.68;100.00
77626;BME280;66794;43.764;10.436;2023-02-15T01:34:40;103325.19;;;0.66;100.00
77626;BME280;66794;43.764;10.436;2023-02-15T01:37:05;103306.22;;;0.47;100.00
77626;BME280;66794;43.764;10.436;2023-02-15T01:39:31;103335.03;;;0.64;100.00
77626;BME280;66794;43.764;10.436;2023-02-15T01:41:56;103355.06;;;0.77;100.00
77626;BME280;66794;43.764;10.436;2023-02-15T01:44:48;103346.91;;;0.82;100.00
77626;BME280;66794;43.764;10.436;2023-02-15T01:47:38;103348.41;;;0.91;100.00
77626;BME280;66794;43.764;10.436;2023-02-15T01:50:17;103312.59;;;0.71;100.00
77626;BME280;66794;43.764;10.436;2023-02-15T01:55:16;103297.81;;;0.61;100.00
77626;BME280;66794;43.764;10.436;2023-02-15T01:57:43;103307.19;;;0.73;100.00
77626;BME280;66794;43.764;10.436;2023-02-15T02:00:11;103336.06;;;1.13;100.00
77626;BME280;66794;43.764;10.436;2023-02-15T02:02:36;103327.09;;;1.42;100.00
77626;BME280;66794;43.764;10.436;2023-02-15T02:05:05;103255.38;;;0.80;100.00
77626;BME280;66794;43.764;10.436;2023-02-15T02:07:43;103332.19;;;0.97;100.00
77626;BME280;66794;43.764;10.436;2023-02-15T02:10:13;103281.09;;;0.83;100.00
77626;BME280;66794;43.764;10.436;2023-02-15T02:12:40;103217.44;;;0.45;100.00
77626;BME280;66794;43.764;10.436;2023-02-15T02:15:07;103309.13;;;1.71;100.00
77626;BME280;66794;43.764;10.436;2023-02-15T02:42:08;103312.44;;;2.01;100.00
77626;BME280;66794;43.764;10.436;2023-02-15T02:44:44;103319.66;;;1.75;100.00
77626;BME280;66794;43.764;10.436;2023-02-15T02:47:43;103319.50;;;1.55;100.00
77626;BME280;66794;43.764;10.436;2023-02-15T02:50:21;103297.50;;;1.72;100.00
77626;BME280;66794;43.764;10.436;2023-02-15T02:52:49;103310.53;;;1.81;100.00
77626;BME280;66794;43.764;10.436;2023-02-15T02:55:16;103312.50;;;1.76;100.00
77626;BME280;66794;43.764;10.436;2023-02-15T02:57:53;103285.78;;;1.52;100.00
77626;BME280;66794;43.764;10.436;2023-02-15T03:00:21;103276.31;;;1.67;100.00
77626;BME280;66794;43.764;10.436;2023-02-15T03:02:49;103271.97;;;1.88;100.00
77626;BME280;66794;43.764;10.436;2023-02-15T03:05:20;103308.50;;;1.88;100.00
77626;BME280;66794;43.764;10.436;2023-02-15T03:07:49;103300.91;;;1.52;100.00
77626;BME280;66794;43.764;10.436;2023-02-15T03:10:18;103256.19;;;1.34;100.00
77626;BME280;66794;43.764;10.436;2023-02-15T03:12:44;103295.00;;;1.67;100.00
77626;BME280;66794;43.764;10.436;2023-02-15T03:15:23;103290.41;;;1.47;100.00
77626;BME280;66794;43.764;10.436;2023-02-15T03:17:57;103295.84;;;1.69;100.00
77626;BME280;66794;43.764;10.436;2023-02-15T03:20:33;103287.69;;;1.49;100.00
77626;BME280;66794;43.764;10.436;2023-02-15T03:23:04;103255.41;;;1.55;100.00
77626;BME280;66794;43.764;10.436;2023-02-15T03:25:52;103264.97;;;1.37;100.00
77626;BME280;66794;43.764;10.436;2023-02-15T03:28:27;103263.78;;;1.69;100.00
77626;BME280;66794;43.764;10.436;2023-02-15T03:30:57;103282.31;;;1.97;100.00
77626;BME280;66794;43.764;10.436;2023-02-15T03:33:26;103233.41;;;1.72;100.00
77626;BME280;66794;43.764;10.436;2023-02-15T03:35:58;103252.50;;;1.84;100.00
77626;BME280;66794;43.764;10.436;2023-02-15T03:38:33;103283.00;;;2.02;100.00
77626;BME280;66794;43.764;10.436;2023-02-15T03:41:02;103280.38;;;2.01;100.00
77626;BME280;66794;43.764;10.436;2023-02-15T03:43:55;103229.59;;;2.01;100.00
77626;BME280;66794;43.764;10.436;2023-02-15T03:49:14;103276.13;;;2.19;100.00
77626;BME280;66794;43.764;10.436;2023-02-15T03:51:44;103273.72;;;2.13;100.00
77626;BME280;66794;43.764;10.436;2023-02-15T03:54:22;103271.72;;;1.94;100.00
77626;BME280;66794;43.764;10.436;2023-02-15T03:57:13;103278.78;;;1.97;100.00
77626;BME280;66794;43.764;10.436;2023-02-15T03:59:58;103248.63;;;1.70;100.00
77626;BME280;66794;43.764;10.436;2023-02-15T04:03:38;103284.06;;;1.98;100.00
77626;BME280;66794;43.764;10.436;2023-02-15T04:05:38;103288.16;;;1.83;100.00
77626;BME280;66794;43.764;10.436;2023-02-15T04:08:04;103268.53;;;1.61;100.00
77626;BME280;66794;43.764;10.436;2023-02-15T04:10:30;103232.16;;;1.34;100.00
77626;BME280;66794;43.764;10.436;2023-02-15T04:13:14;103274.56;;;1.66;100.00
77626;BME280;66794;43.764;10.436;2023-02-15T04:15:39;103244.72;;;1.55;100.00
77626;BME280;66794;43.764;10.436;2023-02-15T04:18:23;103266.56;;;1.90;100.00
77626;BME280;66794;43.764;10.436;2023-02-15T04:21:07;103265.72;;;2.11;100.00
77626;BME280;66794;43.764;10.436;2023-02-15T04:23:52;103265.00;;;2.07;100.00
77626;BME280;66794;43.764;10.436;2023-02-15T04:26:35;103270.63;;;2.23;100.00
77626;BME280;66794;43.764;10.436;2023-02-15T04:29:01;103277.41;;;2.08;100.00
77626;BME280;66794;43.764;10.436;2023-02-15T04:31:26;103276.94;;;2.21;100.00
77626;BME280;66794;43.764;10.436;2023-02-15T04:33:52;103242.84;;;2.04;100.00
77626;BME280;66794;43.764;10.436;2023-02-15T04:36:17;103258.94;;;1.79;100.00
77626;BME280;66794;43.764;10.436;2023-02-15T04:38:42;103274.41;;;1.71;100.00
77626;BME280;66794;43.764;10.436;2023-02-15T04:41:08;103277.94;;;1.71;100.00
77626;BME280;66794;43.764;10.436;2023-02-15T04:43:35;103291.44;;;1.92;100.00
77626;BME280;66794;43.764;10.436;2023-02-15T04:46:01;103297.69;;;2.14;100.00
77626;BME280;66794;43.764;10.436;2023-02-15T04:48:26;103252.75;;;2.02;100.00
77626;BME280;66794;43.764;10.436;2023-02-15T04:50:52;103282.91;;;2.27;100.00
77626;BME280;66794;43.764;10.436;2023-02-15T04:53:17;103264.84;;;2.34;100.00
77626;BME280;66794;43.764;10.436;2023-02-15T04:55:43;103249.16;;;2.47;100.00
77626;BME280;66794;43.764;10.436;2023-02-15T04:58:08;103258.66;;;2.54;100.00
77626;BME280;66794;43.764;10.436;2023-02-15T05:00:34;103221.09;;;2.13;100.00
77626;BME280;66794;43.764;10.436;2023-02-15T05:02:59;103249.09;;;2.26;100.00
77626;BME280;66794;43.764;10.436;2023-02-15T05:05:25;103238.00;;;2.14;100.00
77626;BME280;66794;43.764;10.436;2023-02-15T05:07:50;103257.53;;;2.16;100.00
77626;BME280;66794;43.764;10.436;2023-02-15T05:10:15;103211.50;;;1.86;100.00
77626;BME280;66794;43.764;10.436;2023-02-15T05:12:41;103265.97;;;2.28;100.00
77626;BME280;66794;43.764;10.436;2023-02-15T05:15:07;103285.72;;;2.46;100.00
77626;BME280;66794;43.764;10.436;2023-02-15T05:17:32;103250.22;;;2.43;100.00
77626;BME280;66794;43.764;10.436;2023-02-15T05:19:57;103256.41;;;2.21;100.00
77626;BME280;66794;43.764;10.436;2023-02-15T05:22:23;103288.09;;;2.54;100.00
77626;BME280;66794;43.764;10.436;2023-02-15T05:24:48;103286.78;;;2.42;100.00
77626;BME280;66794;43.764;10.436;2023-02-15T05:27:32;103290.50;;;2.38;100.00
77626;BME280;66794;43.764;10.436;2023-02-15T05:30:16;103272.88;;;2.34;100.00
77626;BME280;66794;43.764;10.436;2023-02-15T05:32:43;103295.75;;;2.41;100.00
77626;BME280;66794;43.764;10.436;2023-02-15T05:35:14;103297.41;;;2.44;100.00
77626;BME280;66794;43.764;10.436;2023-02-15T05:37:40;103279.25;;;2.30;100.00
77626;BME280;66794;43.764;10.436;2023-02-15T05:40:06;103260.63;;;2.05;100.00
77626;BME280;66794;43.764;10.436;2023-02-15T05:42:32;103301.97;;;1.71;100.00
77626;BME280;66794;43.764;10.436;2023-02-15T05:44:57;103251.75;;;0.83;100.00
77626;BME280;66794;43.764;10.436;2023-02-15T05:47:23;103240.78;;;0.37;100.00
77626;BME280;66794;43.764;10.436;2023-02-15T05:49:48;103233.88;;;0.04;100.00
77626;BME280;66794;43.764;10.436;2023-02-15T05:52:14;103312.63;;;0.42;100.00
77626;BME280;66794;43.764;10.436;2023-02-15T05:54:39;103264.34;;;-0.05;100.00
77626;BME280;66794;43.764;10.436;2023-02-15T05:57:04;103249.91;;;0.02;100.00
77626;BME280;66794;43.764;10.436;2023-02-15T05:59:30;103325.28;;;0.63;100.00
77626;BME280;66794;43.764;10.436;2023-02-15T06:01:55;103281.44;;;0.98;100.00
77626;BME280;66794;43.764;10.436;2023-02-15T06:04:21;103316.06;;;1.26;100.00
77626;BME280;66794;43.764;10.436;2023-02-15T06:06:46;103313.50;;;1.23;100.00
77626;BME280;66794;43.764;10.436;2023-02-15T06:09:12;103323.78;;;1.34;100.00
77626;BME280;66794;43.764;10.436;2023-02-15T06:11:37;103303.94;;;1.41;100.00
77626;BME280;66794;43.764;10.436;2023-02-15T06:14:03;103322.44;;;1.22;100.00
77626;BME280;66794;43.764;10.436;2023-02-15T06:16:29;103289.19;;;1.06;100.00
77626;BME280;66794;43.764;10.436;2023-02-15T06:18:54;103320.78;;;1.18;100.00
77626;BME280;66794;43.764;10.436;2023-02-15T06:21:20;103312.50;;;1.51;100.00
77626;BME280;66794;43.764;10.436;2023-02-15T06:23:45;103293.28;;;1.41;100.00
77626;BME280;66794;43.764;10.436;2023-02-15T06:26:11;103330.72;;;1.65;100.00
77626;BME280;66794;43.764;10.436;2023-02-15T06:28:36;103319.19;;;1.13;100.00
77626;BME280;66794;43.764;10.436;2023-02-15T06:31:03;103338.75;;;1.13;100.00
77626;BME280;66794;43.764;10.436;2023-02-15T06:33:28;103342.25;;;1.15;100.00
77626;BME280;66794;43.764;10.436;2023-02-15T06:35:55;103322.22;;;1.28;100.00
77626;BME280;66794;43.764;10.436;2023-02-15T06:38:22;103349.22;;;1.19;100.00
77626;BME280;66794;43.764;10.436;2023-02-15T06:40:47;103316.44;;;1.16;100.00
77626;BME280;66794;43.764;10.436;2023-02-15T06:43:13;103325.97;;;0.96;100.00
77626;BME280;66794;43.764;10.436;2023-02-15T06:45:38;103359.66;;;1.27;100.00
77626;BME280;66794;43.764;10.436;2023-02-15T06:48:04;103362.63;;;1.18;100.00
77626;BME280;66794;43.764;10.436;2023-02-15T06:50:32;103366.28;;;1.15;100.00
77626;BME280;66794;43.764;10.436;2023-02-15T06:52:58;103361.25;;;1.33;100.00
77626;BME280;66794;43.764;10.436;2023-02-15T06:55:24;103358.50;;;1.34;100.00
77626;BME280;66794;43.764;10.436;2023-02-15T06:57:49;103318.88;;;6.67;100.00
77626;BME280;66794;43.764;10.436;2023-02-15T07:00:15;103351.22;;;2.36;100.00
77626;BME280;66794;43.764;10.436;2023-02-15T07:02:41;103355.59;;;2.60;100.00
77626;BME280;66794;43.764;10.436;2023-02-15T07:05:06;103339.53;;;1.92;100.00
77626;BME280;66794;43.764;10.436;2023-02-15T07:07:32;103347.13;;;1.79;100.00
77626;BME280;66794;43.764;10.436;2023-02-15T07:09:57;103373.63;;;1.85;100.00
77626;BME280;66794;43.764;10.436;2023-02-15T07:12:22;103373.81;;;1.80;100.00
77626;BME280;66794;43.764;10.436;2023-02-15T07:15:07;103365.22;;;1.96;100.00
77626;BME280;66794;43.764;10.436;2023-02-15T07:17:35;103345.38;;;1.78;100.00
77626;BME280;66794;43.764;10.436;2023-02-15T07:20:05;103361.66;;;1.95;100.00
77626;BME280;66794;43.764;10.436;2023-02-15T07:22:31;103356.50;;;1.91;100.00
77626;BME280;66794;43.764;10.436;2023-02-15T07:24:59;103375.94;;;2.19;100.00
77626;BME280;66794;43.764;10.436;2023-02-15T07:27:24;103370.13;;;2.08;100.00
77626;BME280;66794;43.764;10.436;2023-02-15T07:29:49;103353.91;;;2.13;100.00
77626;BME280;66794;43.764;10.436;2023-02-15T07:32:15;103376.06;;;2.40;100.00
77626;BME280;66794;43.764;10.436;2023-02-15T07:34:40;103374.94;;;2.45;100.00
77626;BME280;66794;43.764;10.436;2023-02-15T07:37:06;103373.41;;;2.61;100.00
77626;BME280;66794;43.764;10.436;2023-02-15T07:39:32;103386.38;;;3.16;100.00
77626;BME280;66794;43.764;10.436;2023-02-15T07:41:57;103329.47;;;2.67;100.00
77626;BME280;66794;43.764;10.436;2023-02-15T07:44:24;103340.97;;;3.13;100.00
77626;BME280;66794;43.764;10.436;2023-02-15T07:46:50;103385.44;;;2.95;100.00
77626;BME280;66794;43.764;10.436;2023-02-15T07:49:16;103335.59;;;2.25;100.00
77626;BME280;66794;43.764;10.436;2023-02-15T07:51:41;103356.09;;;2.70;100.00
77626;BME280;66794;43.764;10.436;2023-02-15T07:54:07;103368.41;;;3.18;100.00
77626;BME280;66794;43.764;10.436;2023-02-15T07:56:32;103291.94;;;2.69;100.00
77626;BME280;66794;43.764;10.436;2023-02-15T07:58:58;103340.84;;;3.16;100.00
77626;BME280;66794;43.764;10.436;2023-02-15T08:01:27;103373.66;;;3.41;100.00
77626;BME280;66794;43.764;10.436;2023-02-15T08:03:55;103328.44;;;3.13;100.00
77626;BME280;66794;43.764;10.436;2023-02-15T08:06:22;103287.00;;;3.22;100.00
77626;BME280;66794;43.764;10.436;2023-02-15T08:08:48;103357.13;;;3.73;100.00
77626;BME280;66794;43.764;10.436;2023-02-15T08:18:52;103356.13;;;4.14;100.00
77626;BME280;66794;43.764;10.436;2023-02-15T08:21:19;103339.69;;;3.83;100.00
77626;BME280;66794;43.764;10.436;2023-02-15T08:23:45;103334.50;;;3.99;100.00
77626;BME280;66794;43.764;10.436;2023-02-15T08:26:10;103366.56;;;4.39;100.00
77626;BME280;66794;43.764;10.436;2023-02-15T08:28:36;103334.66;;;4.33;100.00
77626;BME280;66794;43.764;10.436;2023-02-15T08:31:09;103327.75;;;4.65;100.00
77626;BME280;66794;43.764;10.436;2023-02-15T08:33:37;103364.69;;;4.79;100.00
77626;BME280;66794;43.764;10.436;2023-02-15T08:36:11;103360.25;;;5.14;100.00
77626;BME280;66794;43.764;10.436;2023-02-15T08:38:37;103348.94;;;5.42;100.00
77626;BME280;66794;43.764;10.436;2023-02-15T08:41:21;103339.34;;;5.38;100.00
77626;BME280;66794;43.764;10.436;2023-02-15T08:43:49;103349.91;;;5.24;100.00
77626;BME280;66794;43.764;10.436;2023-02-15T08:46:17;103353.22;;;5.46;100.00
77626;BME280;66794;43.764;10.436;2023-02-15T08:48:43;103357.00;;;5.42;100.00
77626;BME280;66794;43.764;10.436;2023-02-15T08:51:14;103342.78;;;5.58;100.00
77626;BME280;66794;43.764;10.436;2023-02-15T08:53:43;103322.53;;;5.16;100.00
77626;BME280;66794;43.764;10.436;2023-02-15T08:56:10;103318.44;;;5.26;100.00
77626;BME280;66794;43.764;10.436;2023-02-15T08:58:36;103338.91;;;5.63;100.00
77626;BME280;66794;43.764;10.436;2023-02-15T09:01:12;103322.06;;;5.60;100.00
77626;BME280;66794;43.764;10.436;2023-02-15T09:03:38;103293.56;;;5.40;100.00
77626;BME280;66794;43.764;10.436;2023-02-15T09:06:05;103351.31;;;5.66;100.00
77626;BME280;66794;43.764;10.436;2023-02-15T09:08:30;103277.03;;;5.30;100.00
77626;BME280;66794;43.764;10.436;2023-02-15T09:11:14;103320.66;;;5.52;100.00
77626;BME280;66794;43.764;10.436;2023-02-15T09:13:58;103335.25;;;5.99;100.00
77626;BME280;66794;43.764;10.436;2023-02-15T09:16:27;103327.00;;;6.18;100.00
77626;BME280;66794;43.764;10.436;2023-02-15T09:18:53;103328.97;;;6.31;100.00
77626;BME280;66794;43.764;10.436;2023-02-15T09:21:21;103332.78;;;6.75;100.00
77626;BME280;66794;43.764;10.436;2023-02-15T09:23:49;103305.31;;;6.68;100.00
77626;BME280;66794;43.764;10.436;2023-02-15T09:26:17;103329.75;;;6.65;100.00
77626;BME280;66794;43.764;10.436;2023-02-15T09:28:44;103336.31;;;6.91;100.00
77626;BME280;66794;43.764;10.436;2023-02-15T09:31:19;103304.34;;;7.15;100.00
77626;BME280;66794;43.764;10.436;2023-02-15T09:33:46;103286.78;;;7.38;100.00
77626;BME280;66794;43.764;10.436;2023-02-15T09:36:26;103324.88;;;7.62;99.04
77626;BME280;66794;43.764;10.436;2023-02-15T09:47:40;103320.53;;;7.59;100.00
77626;BME280;66794;43.764;10.436;2023-02-15T09:50:40;103317.97;;;7.86;100.00
77626;BME280;66794;43.764;10.436;2023-02-15T09:53:29;103262.75;;;7.92;99.55
77626;BME280;66794;43.764;10.436;2023-02-15T09:59:02;103302.13;;;8.23;100.00
77626;BME280;66794;43.764;10.436;2023-02-15T10:16:23;103299.78;;;8.87;96.99
77626;BME280;66794;43.764;10.436;2023-02-15T10:23:39;103303.41;;;9.13;94.28
77626;BME280;66794;43.764;10.436;2023-02-15T10:26:22;103268.91;;;9.04;94.64
77626;BME280;66794;43.764;10.436;2023-02-15T10:29:08;103278.06;;;9.41;92.95
77626;BME280;66794;43.764;10.436;2023-02-15T10:31:39;103298.53;;;9.58;91.69
77626;BME280;66794;43.764;10.436;2023-02-15T10:34:15;103307.16;;;9.75;91.13
77626;BME280;66794;43.764;10.436;2023-02-15T10:36:47;103294.25;;;10.05;91.79
77626;BME280;66794;43.764;10.436;2023-02-15T10:42:34;103294.38;;;10.29;87.63
77626;BME280;66794;43.764;10.436;2023-02-15T10:50:46;103284.69;;;10.85;85.00
77626;BME280;66794;43.764;10.436;2023-02-15T10:59:22;103270.22;;;10.73;83.72
77626;BME280;66794;43.764;10.436;2023-02-15T11:02:14;103266.06;;;10.80;83.31
77626;BME280;66794;43.764;10.436;2023-02-15T11:04:55;103235.06;;;10.61;85.13
77626;BME280;66794;43.764;10.436;2023-02-15T11:07:26;103226.13;;;10.71;85.04
77626;BME280;66794;43.764;10.436;2023-02-15T11:12:42;103236.63;;;10.87;82.87
77626;BME280;66794;43.764;10.436;2023-02-15T11:17:56;103249.50;;;10.96;84.91
77626;BME280;66794;43.764;10.436;2023-02-15T11:20:42;103241.75;;;11.03;82.32
77626;BME280;66794;43.764;10.436;2023-02-15T11:23:19;103238.03;;;10.93;82.34
77626;BME280;66794;43.764;10.436;2023-02-15T11:25:54;103239.69;;;11.18;82.73
77626;BME280;66794;43.764;10.436;2023-02-15T11:28:34;103225.94;;;11.43;82.16
77626;BME280;66794;43.764;10.436;2023-02-15T11:31:12;103207.94;;;11.31;81.11
77626;BME280;66794;43.764;10.436;2023-02-15T11:33:44;103231.97;;;11.47;79.91
77626;BME280;66794;43.764;10.436;2023-02-15T11:36:16;103227.94;;;11.64;80.18
77626;BME280;66794;43.764;10.436;2023-02-15T11:38:44;103208.53;;;11.68;79.64
77626;BME280;66794;43.764;10.436;2023-02-15T11:41:19;103219.19;;;11.94;78.50
77626;BME280;66794;43.764;10.436;2023-02-15T11:46:19;103204.97;;;11.79;78.23
77626;BME280;66794;43.764;10.436;2023-02-15T11:48:47;103197.22;;;11.97;77.66
77626;BME280;66794;43.764;10.436;2023-02-15T11:51:18;103214.72;;;12.15;77.75
77626;BME280;66794;43.764;10.436;2023-02-15T11:53:47;103212.25;;;12.12;77.84
77626;BME280;66794;43.764;10.436;2023-02-15T11:56:14;103188.81;;;11.89;79.66
77626;BME280;66794;43.764;10.436;2023-02-15T11:59:04;103189.44;;;11.58;78.89
77626;BME280;66794;43.764;10.436;2023-02-15T12:01:36;103201.91;;;11.83;79.09
77626;BME280;66794;43.764;10.436;2023-02-15T12:06:41;103193.50;;;12.09;77.40
77626;BME280;66794;43.764;10.436;2023-02-15T12:12:25;103200.34;;;12.35;78.20
77626;BME280;66794;43.764;10.436;2023-02-15T12:14:54;103196.59;;;12.48;78.07
77626;BME280;66794;43.764;10.436;2023-02-15T12:17:26;103191.78;;;12.51;75.92
77626;BME280;66794;43.764;10.436;2023-02-15T12:19:55;103184.03;;;12.35;77.10
77626;BME280;66794;43.764;10.436;2023-02-15T12:22:30;103187.19;;;12.52;76.53
77626;BME280;66794;43.764;10.436;2023-02-15T12:25:03;103178.22;;;12.61;76.56
77626;BME280;66794;43.764;10.436;2023-02-15T12:27:32;103177.28;;;12.62;75.90
77626;BME280;66794;43.764;10.436;2023-02-15T12:30:01;103186.63;;;12.69;75.16
77626;BME280;66794;43.764;10.436;2023-02-15T12:32:47;103177.47;;;12.38;76.20
77626;BME280;66794;43.764;10.436;2023-02-15T12:35:18;103165.69;;;12.49;75.90
77626;BME280;66794;43.764;10.436;2023-02-15T12:40:56;103153.13;;;12.89;74.62
77626;BME280;66794;43.764;10.436;2023-02-15T12:43:37;103171.50;;;12.97;73.47
77626;BME280;66794;43.764;10.436;2023-02-15T12:46:24;103170.19;;;12.92;73.37
77626;BME280;66794;43.764;10.436;2023-02-15T12:49:17;103161.47;;;13.19;73.07
77626;BME280;66794;43.764;10.436;2023-02-15T12:51:52;103127.25;;;12.95;73.87
77626;BME280;66794;43.764;10.436;2023-02-15T12:56:49;103156.44;;;13.35;72.77
77626;BME280;66794;43.764;10.436;2023-02-15T12:59:15;103121.34;;;13.11;73.33
77626;BME280;66794;43.764;10.436;2023-02-15T13:01:42;103163.03;;;13.42;72.28
77626;BME280;66794;43.764;10.436;2023-02-15T13:06:48;103129.84;;;13.98;71.90
77626;BME280;66794;43.764;10.436;2023-02-15T13:11:56;103124.00;;;13.62;70.12
77626;BME280;66794;43.764;10.436;2023-02-15T13:14:29;103083.00;;;13.45;69.40
77626;BME280;66794;43.764;10.436;2023-02-15T13:16:58;103136.75;;;14.12;68.76
77626;BME280;66794;43.764;10.436;2023-02-15T13:19:33;103139.22;;;14.25;69.12
77626;BME280;66794;43.764;10.436;2023-02-15T13:22:05;103114.38;;;14.18;68.74
77626;BME280;66794;43.764;10.436;2023-02-15T13:24:47;103097.47;;;14.14;69.73
77626;BME280;66794;43.764;10.436;2023-02-15T13:27:17;103134.28;;;13.99;70.25
77626;BME280;66794;43.764;10.436;2023-02-15T13:29:56;103106.06;;;13.50;70.76
77626;BME280;66794;43.764;10.436;2023-02-15T13:32:37;103130.41;;;13.92;71.00
77626;BME280;66794;43.764;10.436;2023-02-15T13:35:14;103129.72;;;14.09;70.57
77626;BME280;66794;43.764;10.436;2023-02-15T13:38:11;103123.84;;;14.04;71.34
77626;BME280;66794;43.764;10.436;2023-02-15T14:04:59;103109.78;;;14.77;68.60
77626;BME280;66794;43.764;10.436;2023-02-15T14:10:29;103104.34;;;14.38;68.99
77626;BME280;66794;43.764;10.436;2023-02-15T14:15:36;103118.56;;;14.61;68.74
77626;BME280;66794;43.764;10.436;2023-02-15T14:26:55;103114.38;;;14.08;73.10
77626;BME280;66794;43.764;10.436;2023-02-15T14:29:39;103120.69;;;14.28;72.21
77626;BME280;66794;43.764;10.436;2023-02-15T14:32:18;103100.16;;;14.05;71.51
77626;BME280;66794;43.764;10.436;2023-02-15T14:37:19;103091.28;;;14.51;70.50
77626;BME280;66794;43.764;10.436;2023-02-15T14:39:48;103110.69;;;14.48;69.93
77626;BME280;66794;43.764;10.436;2023-02-15T14:42:45;103086.81;;;14.79;69.22
77626;BME280;66794;43.764;10.436;2023-02-15T14:45:26;103104.34;;;14.38;70.80
77626;BME280;66794;43.764;10.436;2023-02-15T14:48:11;103073.06;;;14.32;71.03
77626;BME280;66794;43.764;10.436;2023-02-15T14:50:41;103103.75;;;14.34;70.98
77626;BME280;66794;43.764;10.436;2023-02-15T15:01:35;103087.00;;;13.50;74.08
77626;BME280;66794;43.764;10.436;2023-02-15T15:04:07;103107.03;;;13.99;73.26
77626;BME280;66794;43.764;10.436;2023-02-15T15:06:36;103112.13;;;13.63;74.55
77626;BME280;66794;43.764;10.436;2023-02-15T15:09:32;103101.69;;;13.28;76.23
77626;BME280;66794;43.764;10.436;2023-02-15T15:14:46;103106.34;;;13.16;77.45
77626;BME280;66794;43.764;10.436;2023-02-15T15:22:28;103111.63;;;13.18;78.23
77626;BME280;66794;43.764;10.436;2023-02-15T15:25:11;103104.75;;;12.93;79.35
77626;BME280;66794;43.764;10.436;2023-02-15T15:27:47;103122.59;;;13.07;79.93
77626;BME280;66794;43.764;10.436;2023-02-15T15:49:33;103133.28;;;11.93;82.96
77626;BME280;66794;43.764;10.436;2023-02-15T15:52:12;103137.63;;;11.62;83.93
77626;BME280;66794;43.764;10.436;2023-02-15T15:54:40;103140.69;;;11.57;85.09
77626;BME280;66794;43.764;10.436;2023-02-15T15:57:34;103101.81;;;11.68;83.92
77626;BME280;66794;43.764;10.436;2023-02-15T15:59:58;103134.56;;;11.44;85.78
77626;BME280;66794;43.764;10.436;2023-02-15T16:02:27;103134.28;;;11.13;87.67
77626;BME280;66794;43.764;10.436;2023-02-15T16:04:52;103139.16;;;10.86;90.31
77626;BME280;66794;43.764;10.436;2023-02-15T16:09:57;103142.94;;;10.61;91.55